createdAt,value
2022-11-05T00:00:37.165Z,99300.16
2022-11-05T00:02:27.886Z,99308.00
2022-11-05T00:04:08.336Z,99303.50
2022-11-05T00:05:58.819Z,99306.97
2022-11-05T00:07:59.318Z,99304.28
2022-11-05T00:09:33.025Z,99310.13
2022-11-05T00:11:05.131Z,99309.22
2022-11-05T00:12:55.968Z,99309.19
2022-11-05T00:14:46.467Z,99311.75
2022-11-05T00:16:37.195Z,99305.63
2022-11-05T00:18:09.287Z,99310.75
2022-11-05T00:19:41.299Z,99314.22
2022-11-05T00:21:33.524Z,99315.78
2022-11-05T00:23:26.113Z,99312.16
2022-11-05T00:25:16.735Z,99314.72
2022-11-05T00:26:48.697Z,99316.47
2022-11-05T00:28:20.720Z,99313.88
2022-11-05T00:29:52.912Z,99315.47
2022-11-05T00:31:25.017Z,99324.13
2022-11-05T00:33:02.620Z,99323.16
2022-11-05T00:34:34.742Z,99322.38
2022-11-05T00:36:08.347Z,99322.44
2022-11-05T00:37:42.379Z,99324.22
2022-11-05T00:39:17.729Z,99317.44
2022-11-05T00:40:49.759Z,99317.44
2022-11-05T00:42:40.351Z,99320.78
2022-11-05T00:44:31.038Z,99317.19
2022-11-05T00:46:03.090Z,99316.28
2022-11-05T00:47:54.031Z,99320.56
2022-11-05T00:49:32.003Z,99326.53
2022-11-05T00:51:04.385Z,99324.69
2022-11-05T00:53:02.701Z,99323.78
2022-11-05T00:54:34.663Z,99318.53
2022-11-05T00:56:06.885Z,99325.44
2022-11-05T00:57:38.918Z,99315.13
2022-11-05T00:59:10.906Z,99321.19
2022-11-05T01:00:45.230Z,99321.13
2022-11-05T01:02:17.449Z,99311.63
2022-11-05T01:05:23.454Z,99310.66
2022-11-05T01:06:55.672Z,99314.16
2022-11-05T01:08:28.384Z,99308.81
2022-11-05T01:10:00.510Z,99311.41
2022-11-05T01:11:37.450Z,99306.16
2022-11-05T01:13:12.931Z,99296.59
2022-11-05T01:14:45.482Z,99288.84
2022-11-05T01:16:17.550Z,99281.94
2022-11-05T01:17:51.344Z,99284.38
2022-11-05T01:19:23.362Z,99282.78
2022-11-05T01:20:55.284Z,99285.31
2022-11-05T01:22:27.403Z,99280.06
2022-11-05T01:23:59.541Z,99282.63
2022-11-05T01:25:31.825Z,99280.00
2022-11-05T01:27:03.815Z,99276.50
2022-11-05T01:28:35.894Z,99275.63
2022-11-05T01:30:09.087Z,99269.47
2022-11-05T01:31:41.372Z,99275.63
2022-11-05T01:33:13.631Z,99268.69
2022-11-05T01:34:45.862Z,99271.28
2022-11-05T01:36:21.050Z,99262.69
2022-11-05T01:37:53.065Z,99259.34
2022-11-05T01:39:25.095Z,99263.69
2022-11-05T01:40:57.167Z,99271.50
2022-11-05T01:42:30.941Z,99266.28
2022-11-05T01:44:03.611Z,99262.84
2022-11-05T01:45:35.734Z,99260.25
2022-11-05T01:47:08.163Z,99253.41
2022-11-05T01:48:40.306Z,99251.81
2022-11-05T01:50:24.563Z,99251.81
2022-11-05T01:51:57.591Z,99249.16
2022-11-05T01:53:39.162Z,99245.69
2022-11-05T01:55:11.893Z,99250.94
2022-11-05T01:56:46.734Z,99250.13
2022-11-05T01:58:22.712Z,99252.94
2022-11-05T01:59:57.086Z,99256.56
2022-11-05T02:01:29.702Z,99268.66
2022-11-05T02:03:04.162Z,99256.59
2022-11-05T02:04:42.365Z,99259.13
2022-11-05T02:06:17.040Z,99256.44
2022-11-05T02:07:49.355Z,99255.63
2022-11-05T02:09:25.010Z,99252.19
2022-11-05T02:10:57.583Z,99251.38
2022-11-05T02:12:30.609Z,99252.25
2022-11-05T02:14:02.601Z,99252.41
2022-11-05T02:15:52.604Z,99254.03
2022-11-05T02:17:48.066Z,99257.41
2022-11-05T02:19:56.894Z,99253.94
2022-11-05T02:22:04.077Z,99253.03
2022-11-05T02:24:08.020Z,99256.44
2022-11-05T02:26:08.077Z,99247.81
2022-11-05T02:28:03.711Z,99242.66
2022-11-05T02:30:06.865Z,99245.28
2022-11-05T02:32:00.147Z,99241.00
2022-11-05T02:34:03.966Z,99248.75
2022-11-05T02:35:56.691Z,99244.47
2022-11-05T02:37:39.645Z,99253.19
2022-11-05T02:40:05.539Z,99258.38
2022-11-05T02:41:51.704Z,99257.50
2022-11-05T02:43:34.051Z,99258.34
2022-11-05T02:45:11.940Z,99251.56
2022-11-05T02:47:02.915Z,99254.22
2022-11-05T02:48:53.472Z,99246.38
2022-11-05T02:50:36.756Z,99245.59
2022-11-05T02:52:31.984Z,99255.13
2022-11-05T02:54:33.004Z,99252.69
2022-11-05T02:56:18.960Z,99253.53
2022-11-05T02:57:51.054Z,99247.53
2022-11-05T02:59:23.054Z,99244.97
2022-11-05T03:00:57.521Z,99257.03
2022-11-05T03:04:02.027Z,99263.81
2022-11-05T03:05:44.320Z,99266.41
2022-11-05T03:07:38.726Z,99256.94
2022-11-05T03:09:28.763Z,99264.81
2022-11-05T03:11:22.321Z,99257.19
2022-11-05T03:12:54.353Z,99259.97
2022-11-05T03:14:46.011Z,99265.09
2022-11-05T03:16:46.347Z,99274.56
2022-11-05T03:18:27.702Z,99276.25
2022-11-05T03:20:18.104Z,99276.31
2022-11-05T03:21:54.443Z,99271.81
2022-11-05T03:24:04.516Z,99270.03
2022-11-05T03:25:41.375Z,99257.34
2022-11-05T03:27:16.553Z,99266.81
2022-11-05T03:28:55.272Z,99272.00
2022-11-05T03:30:27.405Z,99275.66
2022-11-05T03:33:32.054Z,99269.00
2022-11-05T03:35:29.314Z,99267.28
2022-11-05T03:37:02.159Z,99269.84
2022-11-05T03:38:39.438Z,99268.94
2022-11-05T03:40:12.674Z,99269.84
2022-11-05T03:41:45.877Z,99262.09
2022-11-05T03:43:19.687Z,99260.47
2022-11-05T03:44:56.201Z,99264.88
2022-11-05T03:46:37.259Z,99270.97
2022-11-05T03:48:11.304Z,99271.00
2022-11-05T03:49:56.485Z,99274.53
2022-11-05T03:51:50.232Z,99276.25
2022-11-05T03:53:26.019Z,99274.63
2022-11-05T03:54:58.055Z,99272.06
2022-11-05T03:56:55.727Z,99276.28
2022-11-05T03:58:28.480Z,99277.16
2022-11-05T04:00:00.614Z,99279.81
2022-11-05T04:01:32.852Z,99281.63
2022-11-05T04:03:05.025Z,99286.13
2022-11-05T04:04:40.445Z,99279.34
2022-11-05T04:06:30.816Z,99277.06
2022-11-05T04:08:21.396Z,99277.22
2022-11-05T04:10:15.063Z,99276.47
2022-11-05T04:12:05.827Z,99273.88
2022-11-05T04:13:37.999Z,99275.59
2022-11-05T04:15:09.991Z,99279.91
2022-11-05T04:17:00.606Z,99276.53
2022-11-05T04:18:32.684Z,99273.16
2022-11-05T04:20:23.604Z,99277.47
2022-11-05T04:22:14.241Z,99283.53
2022-11-05T04:24:04.854Z,99287.75
2022-11-05T04:25:36.815Z,99283.47
2022-11-05T04:27:11.511Z,99286.94
2022-11-05T04:29:07.623Z,99283.38
2022-11-05T04:30:40.687Z,99283.34
2022-11-05T04:32:12.831Z,99284.22
2022-11-05T04:33:44.818Z,99285.13
2022-11-05T04:35:16.928Z,99290.41
2022-11-05T04:36:50.208Z,99294.81
2022-11-05T04:38:22.326Z,99293.22
2022-11-05T04:39:54.419Z,99292.47
2022-11-05T04:41:26.742Z,99298.50
2022-11-05T04:42:58.807Z,99296.72
2022-11-05T04:44:30.880Z,99300.13
2022-11-05T04:46:02.930Z,99290.63
2022-11-05T04:47:34.897Z,99294.00
2022-11-05T04:49:06.990Z,99288.84
2022-11-05T04:50:39.622Z,99299.13
2022-11-05T04:52:11.693Z,99305.13
2022-11-05T04:53:43.808Z,99303.44
2022-11-05T04:55:16.246Z,99303.44
2022-11-05T04:56:48.271Z,99309.50
2022-11-05T04:58:20.354Z,99304.41
2022-11-05T04:59:52.544Z,99306.22
2022-11-05T05:01:25.793Z,99304.53
2022-11-05T05:02:58.007Z,99303.75
2022-11-05T05:04:30.009Z,99302.97
2022-11-05T05:06:04.006Z,99302.16
2022-11-05T05:07:36.441Z,99306.47
2022-11-05T05:09:08.551Z,99302.19
2022-11-05T05:10:40.505Z,99312.53
2022-11-05T05:12:12.839Z,99311.69
2022-11-05T05:13:45.259Z,99321.91
2022-11-05T05:15:17.370Z,99320.97
2022-11-05T05:16:49.366Z,99318.25
2022-11-05T05:18:21.342Z,99322.47
2022-11-05T05:20:12.094Z,99320.66
2022-11-05T05:21:44.085Z,99322.28
2022-11-05T05:23:16.075Z,99326.50
2022-11-05T05:24:52.571Z,99323.84
2022-11-05T05:26:25.024Z,99318.66
2022-11-05T05:27:58.385Z,99323.78
2022-11-05T05:29:30.379Z,99336.69
2022-11-05T05:31:02.507Z,99334.91
2022-11-05T05:32:34.491Z,99334.00
2022-11-05T05:34:07.880Z,99327.94
2022-11-05T05:35:42.425Z,99338.19
2022-11-05T05:37:14.992Z,99330.56
2022-11-05T05:38:47.359Z,99338.38
2022-11-05T05:40:19.377Z,99340.16
2022-11-05T05:41:51.676Z,99347.19
2022-11-05T05:43:23.751Z,99354.88
2022-11-05T05:44:55.756Z,99349.75
2022-11-05T05:46:27.864Z,99355.81
2022-11-05T05:48:00.156Z,99360.09
2022-11-05T05:49:32.730Z,99356.59
2022-11-05T05:51:07.155Z,99364.22
2022-11-05T05:52:39.377Z,99363.31
2022-11-05T05:54:12.348Z,99374.34
2022-11-05T05:55:44.529Z,99370.88
2022-11-05T05:57:16.877Z,99370.78
2022-11-05T05:58:49.253Z,99370.66
2022-11-05T06:00:24.964Z,99371.53
2022-11-05T06:01:57.137Z,99380.00
2022-11-05T06:03:29.295Z,99381.63
2022-11-05T06:05:01.327Z,99379.00
2022-11-05T06:06:33.486Z,99376.34
2022-11-05T06:08:06.217Z,99379.81
2022-11-05T06:09:38.628Z,99376.28
2022-11-05T06:11:11.094Z,99365.84
2022-11-05T06:12:43.917Z,99374.44
2022-11-05T06:14:16.112Z,99365.78
2022-11-05T06:15:48.321Z,99364.03
2022-11-05T06:17:20.599Z,99363.91
2022-11-05T06:18:52.776Z,99368.19
2022-11-05T06:20:24.939Z,99368.09
2022-11-05T06:21:57.120Z,99368.03
2022-11-05T06:23:32.039Z,99383.31
2022-11-05T06:25:05.333Z,99384.97
2022-11-05T06:26:43.148Z,99390.03
2022-11-05T06:28:15.541Z,99397.59
2022-11-05T06:31:20.807Z,99391.34
2022-11-05T06:32:53.237Z,99397.31
2022-11-05T06:34:25.568Z,99391.97
2022-11-05T06:36:04.332Z,99392.59
2022-11-05T06:37:36.674Z,99401.19
2022-11-05T06:39:12.811Z,99400.03
2022-11-05T06:40:44.967Z,99394.81
2022-11-05T06:42:18.682Z,99394.56
2022-11-05T06:43:51.396Z,99403.88
2022-11-05T06:45:23.474Z,99398.56
2022-11-05T06:46:55.740Z,99392.41
2022-11-05T06:48:28.934Z,99387.06
2022-11-05T06:50:00.948Z,99393.88
2022-11-05T06:51:33.086Z,99393.78
2022-11-05T06:53:06.585Z,99391.03
2022-11-05T06:54:38.456Z,99393.31
2022-11-05T06:56:10.890Z,99395.88
2022-11-05T06:57:42.913Z,99387.09
2022-11-05T06:59:15.239Z,99385.22
2022-11-05T07:00:47.606Z,99377.38
2022-11-05T07:02:19.882Z,99372.06
2022-11-05T07:03:52.035Z,99374.47
2022-11-05T07:05:27.489Z,99371.63
2022-11-05T07:07:01.409Z,99378.47
2022-11-05T07:08:38.219Z,99383.47
2022-11-05T07:10:16.373Z,99378.09
2022-11-05T07:11:48.589Z,99373.69
2022-11-05T07:13:20.928Z,99383.00
2022-11-05T07:14:53.044Z,99375.09
2022-11-05T07:16:25.279Z,99371.28
2022-11-05T07:18:01.458Z,99370.09
2022-11-05T07:19:33.898Z,99361.41
2022-11-05T07:21:06.305Z,99368.97
2022-11-05T07:22:38.776Z,99368.78
2022-11-05T07:24:11.203Z,99360.75
2022-11-05T07:25:44.188Z,99364.91
2022-11-05T07:27:17.236Z,99358.69
2022-11-05T07:28:50.561Z,99355.88
2022-11-05T07:30:23.119Z,99362.56
2022-11-05T07:31:55.403Z,99353.66
2022-11-05T07:33:31.151Z,99351.72
2022-11-05T07:35:07.245Z,99354.88
2022-11-05T07:36:40.768Z,99350.19
2022-11-05T07:38:12.890Z,99340.63
2022-11-05T07:39:45.261Z,99343.94
2022-11-05T07:41:17.853Z,99349.75
2022-11-05T07:42:52.445Z,99342.66
2022-11-05T07:44:25.398Z,99343.38
2022-11-05T07:45:57.608Z,99340.72
2022-11-05T07:47:30.282Z,99342.34
2022-11-05T07:49:02.655Z,99339.66
2022-11-05T07:50:38.436Z,99332.41
2022-11-05T07:52:10.807Z,99329.81
2022-11-05T07:53:45.435Z,99336.59
2022-11-05T07:55:19.363Z,99338.03
2022-11-05T07:56:51.814Z,99330.06
2022-11-05T07:58:33.172Z,99325.59
2022-11-05T08:00:05.913Z,99327.19
2022-11-05T08:01:38.280Z,99327.03
2022-11-05T08:03:16.580Z,99326.88
2022-11-05T08:04:49.157Z,99323.38
2022-11-05T08:06:21.348Z,99323.13
2022-11-05T08:07:57.752Z,99321.13
2022-11-05T08:09:29.971Z,99310.81
2022-11-05T08:11:06.440Z,99314.03
2022-11-05T08:12:38.507Z,99320.88
2022-11-05T08:14:10.750Z,99315.50
2022-11-05T08:15:43.791Z,99309.31
2022-11-05T08:17:18.512Z,99310.03
2022-11-05T08:18:51.039Z,99308.13
2022-11-05T08:20:23.388Z,99306.91
2022-11-05T08:21:55.547Z,99307.56
2022-11-05T08:23:28.773Z,99308.13
2022-11-05T08:25:05.649Z,99311.41
2022-11-05T08:26:39.205Z,99311.06
2022-11-05T08:29:59.514Z,99301.81
2022-11-05T08:31:32.487Z,99314.41
2022-11-05T08:33:11.572Z,99308.81
2022-11-05T08:34:44.107Z,99315.69
2022-11-05T08:36:16.436Z,99314.53
2022-11-05T08:37:48.592Z,99307.28
2022-11-05T08:39:20.913Z,99308.72
2022-11-05T08:40:58.056Z,99309.06
2022-11-05T08:42:30.389Z,99308.84
2022-11-05T08:44:02.928Z,99304.19
2022-11-05T08:45:38.292Z,99296.00
2022-11-05T08:47:10.646Z,99306.06
2022-11-05T08:48:43.256Z,99300.50
2022-11-05T08:50:15.603Z,99302.03
2022-11-05T08:51:48.168Z,99301.03
2022-11-05T08:53:20.847Z,99292.91
2022-11-05T08:54:53.318Z,99292.69
2022-11-05T08:56:25.644Z,99281.03
2022-11-05T08:58:03.147Z,99281.44
2022-11-05T08:59:35.457Z,99274.28
2022-11-05T09:01:07.679Z,99280.03
2022-11-05T09:02:40.316Z,99280.59
2022-11-05T09:04:12.544Z,99284.66
2022-11-05T09:05:45.294Z,99289.75
2022-11-05T09:07:17.663Z,99276.31
2022-11-05T09:08:49.990Z,99278.53
2022-11-05T09:10:22.781Z,99272.16
2022-11-05T09:12:11.667Z,99275.28
2022-11-05T09:13:45.159Z,99274.72
2022-11-05T09:15:17.749Z,99269.88
2022-11-05T09:16:49.917Z,99276.31
2022-11-05T09:18:24.718Z,99264.50
2022-11-05T09:19:56.875Z,99268.84
2022-11-05T09:21:29.208Z,99273.63
2022-11-05T09:23:01.404Z,99267.22
2022-11-05T09:24:33.768Z,99265.03
2022-11-05T09:26:06.318Z,99261.47
2022-11-05T09:27:38.785Z,99268.16
2022-11-05T09:29:14.405Z,99268.09
2022-11-05T09:30:49.158Z,99267.06
2022-11-05T09:32:22.183Z,99269.53
2022-11-05T09:33:54.498Z,99268.50
2022-11-05T09:35:26.861Z,99266.31
2022-11-05T09:36:59.306Z,99274.63
2022-11-05T09:40:16.615Z,99265.06
2022-11-05T09:41:49.937Z,99266.50
2022-11-05T09:43:26.077Z,99266.03
2022-11-05T09:45:04.702Z,99265.13
2022-11-05T09:46:58.199Z,99255.97
2022-11-05T09:48:32.660Z,99257.22
2022-11-05T09:50:13.442Z,99251.47
2022-11-05T09:51:45.737Z,99246.03
2022-11-05T09:53:20.542Z,99243.06
2022-11-05T09:54:54.822Z,99244.47
2022-11-05T09:56:29.209Z,99238.03
2022-11-05T09:58:04.302Z,99234.19
2022-11-05T09:59:42.697Z,99245.88
2022-11-05T10:01:36.506Z,99238.41
2022-11-05T10:03:13.785Z,99238.19
2022-11-05T10:04:48.995Z,99234.44
2022-11-05T10:06:25.570Z,99241.19
2022-11-05T10:08:06.589Z,99229.75
2022-11-05T10:09:48.312Z,99231.63
2022-11-05T10:11:36.002Z,99233.31
2022-11-05T10:14:51.991Z,99232.66
2022-11-05T10:16:40.187Z,99242.56
2022-11-05T10:18:35.991Z,99245.19
2022-11-05T10:20:43.446Z,99239.28
2022-11-05T10:22:18.642Z,99239.94
2022-11-05T10:23:50.747Z,99229.81
2022-11-05T10:25:25.901Z,99231.06
2022-11-05T10:26:58.222Z,99228.34
2022-11-05T10:28:33.447Z,99222.72
2022-11-05T10:30:06.725Z,99230.13
2022-11-05T10:31:39.020Z,99234.53
2022-11-05T10:33:13.302Z,99236.13
2022-11-05T10:34:45.982Z,99229.84
2022-11-05T10:36:28.624Z,99234.31
2022-11-05T10:38:00.817Z,99234.41
2022-11-05T10:39:34.223Z,99231.69
2022-11-05T10:41:27.952Z,99230.56
2022-11-05T10:43:19.970Z,99229.63
2022-11-05T10:45:22.896Z,99230.34
2022-11-05T10:47:07.266Z,99230.94
2022-11-05T10:48:45.869Z,99223.06
2022-11-05T10:50:26.360Z,99221.84
2022-11-05T10:52:00.771Z,99226.69
2022-11-05T10:53:35.576Z,99226.41
2022-11-05T10:55:16.874Z,99227.50
2022-11-05T10:56:49.336Z,99228.25
2022-11-05T10:58:27.789Z,99227.88
2022-11-05T11:00:24.636Z,99224.00
2022-11-05T11:02:00.477Z,99223.72
2022-11-05T11:03:46.118Z,99220.97
2022-11-05T11:05:39.714Z,99221.75
2022-11-05T11:07:29.840Z,99211.78
2022-11-05T11:09:04.705Z,99213.06
2022-11-05T11:10:54.158Z,99214.69
2022-11-05T11:12:30.014Z,99212.88
2022-11-05T11:14:18.601Z,99215.31
2022-11-05T11:15:51.595Z,99204.28
2022-11-05T11:17:30.060Z,99204.63
2022-11-05T11:19:03.786Z,99204.75
2022-11-05T11:20:44.775Z,99208.63
2022-11-05T11:22:20.106Z,99205.66
2022-11-05T11:24:05.695Z,99203.56
2022-11-05T11:25:48.681Z,99200.72
2022-11-05T11:27:30.293Z,99204.81
2022-11-05T11:29:08.579Z,99199.78
2022-11-05T11:30:47.937Z,99203.25
2022-11-05T11:32:21.375Z,99196.19
2022-11-05T11:34:17.930Z,99194.50
2022-11-05T11:35:50.466Z,99198.31
2022-11-05T11:37:27.546Z,99203.56
2022-11-05T11:39:01.777Z,99204.41
2022-11-05T11:40:36.888Z,99207.25
2022-11-05T11:42:15.321Z,99205.56
2022-11-05T11:43:47.880Z,99206.63
2022-11-05T11:45:33.684Z,99205.88
2022-11-05T11:47:12.823Z,99206.38
2022-11-05T11:48:48.037Z,99208.81
2022-11-05T11:50:36.339Z,99202.91
2022-11-05T11:52:14.943Z,99208.16
2022-11-05T11:53:57.920Z,99204.81
2022-11-05T11:55:30.288Z,99199.63
2022-11-05T11:57:03.190Z,99217.03
2022-11-05T11:58:39.992Z,99205.53
2022-11-05T12:00:13.171Z,99206.09
2022-11-05T12:01:54.667Z,99205.97
2022-11-05T12:03:36.794Z,99210.50
2022-11-05T12:05:35.234Z,99210.72
2022-11-05T12:07:19.474Z,99216.41
2022-11-05T12:09:01.981Z,99214.84
2022-11-05T12:10:41.223Z,99213.66
2022-11-05T12:12:14.778Z,99219.13
2022-11-05T12:14:00.551Z,99215.56
2022-11-05T12:15:51.300Z,99212.19
2022-11-05T12:17:32.290Z,99210.63
2022-11-05T12:19:36.869Z,99205.03
2022-11-05T12:21:52.169Z,99207.97
2022-11-05T12:23:44.072Z,99205.66
2022-11-05T12:25:27.543Z,99203.84
2022-11-05T12:27:25.560Z,99205.31
2022-11-05T12:29:19.165Z,99201.13
2022-11-05T12:31:06.684Z,99209.00
2022-11-05T12:33:03.475Z,99205.75
2022-11-05T12:35:02.144Z,99211.53
2022-11-05T12:37:05.593Z,99209.53
2022-11-05T12:39:01.216Z,99212.28
2022-11-05T12:40:37.326Z,99215.94
2022-11-05T12:42:19.958Z,99216.56
2022-11-05T12:44:07.363Z,99215.41
2022-11-05T12:45:47.833Z,99211.72
2022-11-05T12:47:49.373Z,99212.69
2022-11-05T12:49:31.360Z,99217.22
2022-11-05T12:51:21.925Z,99221.59
2022-11-05T12:53:09.738Z,99226.88
2022-11-05T12:55:05.475Z,99223.81
2022-11-05T12:56:46.416Z,99224.97
2022-11-05T12:58:38.988Z,99223.47
2022-11-05T13:00:25.276Z,99223.47
2022-11-05T13:02:18.836Z,99224.28
2022-11-05T14:42:28.354Z,99296.09
2022-11-05T14:44:06.398Z,99299.19
2022-11-05T14:45:53.671Z,99297.00
2022-11-05T14:47:28.959Z,99299.22
2022-11-05T14:49:09.124Z,99294.34
2022-11-05T14:50:42.673Z,99295.63
2022-11-05T14:52:15.992Z,99289.06
2022-11-05T14:53:48.604Z,99285.94
2022-11-05T14:55:30.513Z,99291.47
2022-11-05T14:57:02.937Z,99297.13
2022-11-05T14:58:37.261Z,99307.78
2022-11-05T15:00:41.020Z,99300.00
2022-11-05T15:02:19.681Z,99299.31
2022-11-05T15:04:18.544Z,99296.13
2022-11-05T15:05:53.608Z,99302.56
2022-11-05T15:07:36.040Z,99299.50
2022-11-05T15:09:19.194Z,99299.78
2022-11-05T15:10:51.535Z,99295.75
2022-11-05T15:12:45.376Z,99307.94
2022-11-05T15:14:31.256Z,99305.72
2022-11-05T15:16:04.498Z,99308.53
2022-11-05T15:17:46.308Z,99309.63
2022-11-05T15:19:34.060Z,99315.94
2022-11-05T15:21:07.986Z,99316.34
2022-11-05T15:22:50.009Z,99309.78
2022-11-05T15:24:22.638Z,99310.94
2022-11-05T15:26:19.465Z,99306.66
2022-11-05T15:28:20.881Z,99313.81
2022-11-05T15:29:53.267Z,99307.38
2022-11-05T15:31:35.649Z,99313.75
2022-11-05T15:33:22.229Z,99315.66
2022-11-05T15:34:56.193Z,99316.84
2022-11-05T15:36:34.982Z,99313.72
2022-11-05T15:38:18.474Z,99300.19
2022-11-05T15:39:52.445Z,99311.63
2022-11-05T15:41:28.962Z,99314.44
2022-11-05T15:43:18.112Z,99319.03
2022-11-05T15:44:55.168Z,99316.06
2022-11-05T15:46:29.273Z,99318.25
2022-11-05T15:48:13.529Z,99321.16
2022-11-05T15:49:51.760Z,99323.31
2022-11-05T15:51:27.177Z,99317.59
2022-11-05T15:53:20.718Z,99318.06
2022-11-05T15:55:13.320Z,99326.97
2022-11-05T15:56:52.372Z,99322.03
2022-11-05T15:58:24.776Z,99331.94
2022-11-05T15:59:59.986Z,99338.91
2022-11-05T16:01:37.818Z,99325.19
2022-11-05T16:03:30.494Z,99329.69
2022-11-05T16:05:07.235Z,99332.66
2022-11-05T16:06:40.825Z,99332.94
2022-11-05T16:09:54.548Z,99327.44
2022-11-05T16:11:27.700Z,99342.38
2022-11-05T16:13:38.756Z,99340.78
2022-11-05T16:15:10.981Z,99336.91
2022-11-05T16:16:43.904Z,99339.66
2022-11-05T16:18:27.423Z,99352.81
2022-11-05T16:19:59.654Z,99348.06
2022-11-05T16:21:31.897Z,99344.88
2022-11-05T16:23:06.949Z,99352.16
2022-11-05T16:24:39.215Z,99350.00
2022-11-05T16:28:32.212Z,99366.75
2022-11-05T16:30:05.011Z,99360.75
2022-11-05T16:31:37.544Z,99361.75
2022-11-05T16:33:14.111Z,99357.31
2022-11-05T16:34:48.988Z,99363.56
2022-11-05T16:36:21.902Z,99360.50
2022-11-05T16:37:54.138Z,99358.56
2022-11-05T16:39:27.098Z,99354.56
2022-11-05T16:41:00.864Z,99362.81
2022-11-05T16:42:44.978Z,99359.38
2022-11-05T16:44:17.469Z,99356.19
2022-11-05T16:45:50.070Z,99363.16
2022-11-05T16:47:23.289Z,99360.56
2022-11-05T16:48:56.450Z,99351.09
2022-11-05T16:50:32.334Z,99364.19
2022-11-05T16:52:09.002Z,99360.91
2022-11-05T16:53:41.757Z,99354.38
2022-11-05T16:55:15.404Z,99368.50
2022-11-05T16:56:47.836Z,99367.88
2022-11-05T16:58:25.056Z,99366.16
2022-11-05T16:59:59.494Z,99368.88
2022-11-05T17:01:32.201Z,99362.28
2022-11-05T17:03:04.732Z,99360.66
2022-11-05T17:04:36.894Z,99367.66
2022-11-05T17:06:09.428Z,99364.28
2022-11-05T17:07:41.759Z,99368.81
2022-11-05T17:09:14.416Z,99374.91
2022-11-05T17:10:46.559Z,99368.13
2022-11-05T17:12:18.913Z,99368.38
2022-11-05T17:13:54.166Z,99370.31
2022-11-05T17:15:31.543Z,99368.50
2022-11-05T17:17:04.162Z,99374.66
2022-11-05T17:18:36.405Z,99378.22
2022-11-05T17:20:15.397Z,99369.56
2022-11-05T17:21:47.935Z,99370.66
2022-11-05T17:23:22.273Z,99375.84
2022-11-05T17:24:54.745Z,99370.03
2022-11-05T17:26:27.268Z,99373.03
2022-11-05T17:27:59.735Z,99368.06
2022-11-05T17:29:32.114Z,99369.06
2022-11-05T17:31:06.682Z,99381.22
2022-11-05T17:32:39.063Z,99372.00
2022-11-05T17:34:11.366Z,99376.56
2022-11-05T17:35:43.815Z,99370.69
2022-11-05T17:38:49.127Z,99362.47
2022-11-05T17:40:25.645Z,99374.47
2022-11-05T17:41:57.795Z,99377.19
2022-11-05T17:43:29.821Z,99378.94
2022-11-05T17:45:02.178Z,99372.97
2022-11-05T17:46:34.396Z,99373.94
2022-11-05T17:48:06.810Z,99370.56
2022-11-05T17:49:39.019Z,99369.94
2022-11-05T17:51:12.940Z,99370.88
2022-11-05T17:52:45.564Z,99370.09
2022-11-05T17:54:17.832Z,99371.16
2022-11-05T17:55:50.183Z,99366.97
2022-11-05T17:57:22.572Z,99363.69
2022-11-05T17:58:55.863Z,99374.09
2022-11-05T18:00:28.166Z,99370.69
2022-11-05T18:02:00.447Z,99365.66
2022-11-05T18:03:33.149Z,99367.63
2022-11-05T18:05:06.193Z,99360.81
2022-11-05T18:08:10.592Z,99372.09
2022-11-05T18:09:42.863Z,99372.09
2022-11-05T18:11:15.086Z,99373.09
2022-11-05T18:12:47.462Z,99368.88
2022-11-05T18:14:23.900Z,99360.56
2022-11-05T18:15:56.495Z,99365.88
2022-11-05T18:17:30.293Z,99374.66
2022-11-05T18:19:03.084Z,99378.31
2022-11-05T18:20:35.748Z,99375.03
2022-11-05T18:22:07.906Z,99375.13
2022-11-05T18:23:40.230Z,99374.34
2022-11-05T18:25:14.396Z,99375.22
2022-11-05T18:26:46.718Z,99370.28
2022-11-05T18:28:19.014Z,99372.22
2022-11-05T18:29:51.613Z,99376.63
2022-11-05T18:31:25.442Z,99369.72
2022-11-05T18:32:57.620Z,99360.25
2022-11-05T18:34:30.381Z,99368.94
2022-11-05T18:36:02.689Z,99369.13
2022-11-05T18:37:35.123Z,99370.06
2022-11-05T18:39:08.926Z,99369.31
2022-11-05T18:40:41.145Z,99368.47
2022-11-05T18:42:13.437Z,99373.66
2022-11-05T18:43:45.646Z,99361.59
2022-11-05T18:45:17.633Z,99365.03
2022-11-05T18:46:58.814Z,99360.75
2022-11-05T18:48:31.169Z,99371.19
2022-11-05T18:50:04.746Z,99364.41
2022-11-05T18:51:37.366Z,99362.94
2022-11-05T18:53:09.588Z,99369.28
2022-11-05T18:54:41.900Z,99365.88
2022-11-05T18:56:17.123Z,99370.13
2022-11-05T18:57:49.354Z,99372.00
2022-11-05T18:59:36.802Z,99374.72
2022-11-05T19:01:26.874Z,99376.50
2022-11-05T19:02:59.095Z,99365.50
2022-11-05T19:04:31.839Z,99370.78
2022-11-05T19:06:04.751Z,99370.00
2022-11-05T19:07:40.738Z,99373.44
2022-11-05T19:09:15.293Z,99370.91
2022-11-05T19:10:51.681Z,99380.44
2022-11-05T19:12:23.919Z,99381.28
2022-11-05T19:13:56.215Z,99384.69
2022-11-05T19:15:28.394Z,99379.56
2022-11-05T19:17:01.456Z,99389.94
2022-11-05T19:18:33.703Z,99394.34
2022-11-05T19:20:06.817Z,99398.66
2022-11-05T19:21:39.584Z,99397.09
2022-11-05T19:23:13.985Z,99387.66
2022-11-05T19:24:46.101Z,99393.69
2022-11-05T19:26:28.385Z,99390.97
2022-11-05T19:28:02.192Z,99390.25
2022-11-05T19:29:34.627Z,99390.28
2022-11-05T19:31:10.250Z,99390.31
2022-11-05T19:32:42.495Z,99383.56
2022-11-05T19:34:15.128Z,99385.53
2022-11-05T19:35:47.274Z,99392.66
2022-11-05T19:37:20.352Z,99397.03
2022-11-05T19:39:00.796Z,99398.78
2022-11-05T19:40:32.911Z,99397.31
2022-11-05T19:42:05.477Z,99392.22
2022-11-05T19:43:39.099Z,99389.56
2022-11-05T19:45:38.241Z,99399.03
2022-11-05T19:47:03.903Z,99402.50
2022-11-05T19:48:37.454Z,99399.19
2022-11-05T19:50:10.054Z,99402.72
2022-11-05T19:51:43.319Z,99407.00
2022-11-05T19:53:15.495Z,99395.69
2022-11-05T19:54:47.669Z,99400.84
2022-11-05T19:56:22.332Z,99402.63
2022-11-05T19:57:54.705Z,99401.25
2022-11-05T19:59:27.085Z,99408.34
2022-11-05T20:00:59.388Z,99404.25
2022-11-05T20:02:31.805Z,99403.53
2022-11-05T20:05:36.090Z,99409.84
2022-11-05T20:07:08.246Z,99416.75
2022-11-05T20:08:59.677Z,99414.19
2022-11-05T20:10:32.852Z,99421.13
2022-11-05T20:12:05.012Z,99422.03
2022-11-05T20:13:37.619Z,99424.56
2022-11-05T20:15:09.957Z,99429.78
2022-11-05T20:16:43.231Z,99418.66
2022-11-05T20:18:16.542Z,99420.44
2022-11-05T20:19:48.751Z,99419.63
2022-11-05T20:21:20.860Z,99423.13
2022-11-05T20:22:53.089Z,99427.44
2022-11-05T20:24:25.705Z,99416.34
2022-11-05T20:25:59.132Z,99417.13
2022-11-05T20:27:31.256Z,99414.53
2022-11-05T20:29:03.599Z,99433.34
2022-11-05T20:30:36.130Z,99434.19
2022-11-05T20:32:08.660Z,99420.47
2022-11-05T20:35:13.437Z,99424.78
2022-11-05T20:36:45.527Z,99433.38
2022-11-05T20:38:17.872Z,99436.91
2022-11-05T20:39:49.908Z,99431.81
2022-11-05T20:41:22.363Z,99429.25
2022-11-05T20:42:54.368Z,99436.16
2022-11-05T20:44:26.817Z,99441.38
2022-11-05T20:45:59.215Z,99439.72
2022-11-05T20:47:31.347Z,99438.03
2022-11-05T20:49:03.769Z,99433.63
2022-11-05T20:50:40.323Z,99435.25
2022-11-05T20:52:17.447Z,99445.53
2022-11-05T20:53:49.615Z,99435.34
2022-11-05T20:55:24.354Z,99435.38
2022-11-05T20:56:56.582Z,99440.53
2022-11-05T20:58:28.746Z,99440.53
2022-11-05T21:00:01.039Z,99432.78
2022-11-05T21:01:34.499Z,99433.69